CheckWX is a tool to help pilots better visualize weather data.  It is not intended as a substitute for an official pre-flight weather briefing.

14:56:56 UTC

KUNO METAR
West Plains Regional Airport
West Plains, Missouri, USA
Current

1 hour ago

KUNO 281353Z AUTO 18007KT 10SM CLR 21/17 A2972 RMK AO2 SLP054 T02060172
Observed
Mar-28 @ 13:53 UTC
Wind
  • 180° at 7 KTS
Visibility
10 SM
Flight Rules
VFR
Cloud Levels
  • Clear skies
Temperature
21°C / 70°F
Dewpoint
17°C / 63°F
Humidity
78%
Altimeter
29.72" Hg
Pressure
1006.42 hPa
Previous

2 hours ago

KUNO 281253Z AUTO 17008KT 10SM CLR 20/17 A2969 RMK AO2 SLP042 T02000167
Observed
Mar-28 @ 12:53 UTC
Wind
  • 170° at 8 KTS
Visibility
10 SM
Flight Rules
VFR
Cloud Levels
  • Clear skies
Temperature
20°C / 68°F
Dewpoint
17°C / 63°F
Humidity
83%
Altimeter
29.69" Hg
Pressure
1005.42 hPa
Previous

3 hours ago

KUNO 281153Z AUTO 18007KT 10SM CLR 20/17 A2969 RMK AO2 SLP043 T02000167 10211 20194 51005
Observed
Mar-28 @ 11:53 UTC
Wind
  • 180° at 7 KTS
Visibility
10 SM
Flight Rules
VFR
Cloud Levels
  • Clear skies
Temperature
20°C / 68°F
Dewpoint
17°C / 63°F
Humidity
83%
Altimeter
29.69" Hg
Pressure
1005.42 hPa